sensor_id;sensor_type;location;lat;lon;timestamp;P1;durP1;ratioP1;P2;durP2;ratioP2
53781;SDS011;39692;53.114;7.060;2023-02-28T00:01:04;5.95;;;2.20;;
53781;SDS011;39692;53.114;7.060;2023-02-28T00:03:30;4.13;;;2.20;;
53781;SDS011;39692;53.114;7.060;2023-02-28T00:06:00;8.77;;;2.75;;
53781;SDS011;39692;53.114;7.060;2023-02-28T00:08:26;6.30;;;2.33;;
53781;SDS011;39692;53.114;7.060;2023-02-28T00:10:52;4.47;;;2.22;;
53781;SDS011;39692;53.114;7.060;2023-02-28T00:13:18;5.93;;;2.60;;
53781;SDS011;39692;53.114;7.060;2023-02-28T00:15:44;7.20;;;2.70;;
53781;SDS011;39692;53.114;7.060;2023-02-28T00:18:11;6.55;;;2.25;;
53781;SDS011;39692;53.114;7.060;2023-02-28T00:20:38;9.48;;;3.20;;
53781;SDS011;39692;53.114;7.060;2023-02-28T00:23:04;8.88;;;2.40;;
53781;SDS011;39692;53.114;7.060;2023-02-28T00:25:30;5.35;;;2.08;;
53781;SDS011;39692;53.114;7.060;2023-02-28T00:27:56;6.82;;;2.50;;
53781;SDS011;39692;53.114;7.060;2023-02-28T00:30:22;4.00;;;1.98;;
53781;SDS011;39692;53.114;7.060;2023-02-28T00:32:50;4.38;;;2.35;;
53781;SDS011;39692;53.114;7.060;2023-02-28T00:35:17;4.55;;;2.58;;
53781;SDS011;39692;53.114;7.060;2023-02-28T00:37:43;4.75;;;2.33;;
53781;SDS011;39692;53.114;7.060;2023-02-28T00:40:09;8.68;;;2.75;;
53781;SDS011;39692;53.114;7.060;2023-02-28T00:42:36;6.68;;;2.75;;
53781;SDS011;39692;53.114;7.060;2023-02-28T00:45:02;9.93;;;2.50;;
53781;SDS011;39692;53.114;7.060;2023-02-28T00:47:33;4.07;;;2.45;;
53781;SDS011;39692;53.114;7.060;2023-02-28T00:49:59;7.13;;;2.17;;
53781;SDS011;39692;53.114;7.060;2023-02-28T00:52:25;6.05;;;2.28;;
53781;SDS011;39692;53.114;7.060;2023-02-28T00:54:51;5.85;;;2.33;;
53781;SDS011;39692;53.114;7.060;2023-02-28T00:57:19;3.88;;;2.28;;
53781;SDS011;39692;53.114;7.060;2023-02-28T00:59:45;4.45;;;2.45;;
53781;SDS011;39692;53.114;7.060;2023-02-28T01:02:11;11.27;;;2.33;;
53781;SDS011;39692;53.114;7.060;2023-02-28T01:04:37;5.20;;;2.55;;
53781;SDS011;39692;53.114;7.060;2023-02-28T01:07:04;6.20;;;2.70;;
53781;SDS011;39692;53.114;7.060;2023-02-28T01:09:30;4.53;;;2.05;;
53781;SDS011;39692;53.114;7.060;2023-02-28T01:11:56;8.63;;;2.92;;
53781;SDS011;39692;53.114;7.060;2023-02-28T01:14:22;6.78;;;2.72;;
53781;SDS011;39692;53.114;7.060;2023-02-28T01:16:48;7.25;;;2.53;;
53781;SDS011;39692;53.114;7.060;2023-02-28T01:19:14;6.75;;;2.42;;
53781;SDS011;39692;53.114;7.060;2023-02-28T01:21:40;7.00;;;2.30;;
53781;SDS011;39692;53.114;7.060;2023-02-28T01:24:06;3.85;;;2.08;;
53781;SDS011;39692;53.114;7.060;2023-02-28T01:26:32;4.95;;;2.38;;
53781;SDS011;39692;53.114;7.060;2023-02-28T01:28:58;3.50;;;1.98;;
53781;SDS011;39692;53.114;7.060;2023-02-28T01:31:25;5.25;;;2.22;;
53781;SDS011;39692;53.114;7.060;2023-02-28T01:33:51;4.43;;;2.10;;
53781;SDS011;39692;53.114;7.060;2023-02-28T01:36:18;6.43;;;2.40;;
53781;SDS011;39692;53.114;7.060;2023-02-28T01:38:44;7.03;;;2.53;;
53781;SDS011;39692;53.114;7.060;2023-02-28T01:41:18;4.80;;;2.40;;
53781;SDS011;39692;53.114;7.060;2023-02-28T01:46:11;7.10;;;2.63;;
53781;SDS011;39692;53.114;7.060;2023-02-28T01:48:42;4.10;;;2.25;;
53781;SDS011;39692;53.114;7.060;2023-02-28T01:51:14;6.35;;;2.50;;
53781;SDS011;39692;53.114;7.060;2023-02-28T01:53:44;4.80;;;2.25;;
53781;SDS011;39692;53.114;7.060;2023-02-28T01:56:12;6.28;;;2.78;;
53781;SDS011;39692;53.114;7.060;2023-02-28T01:58:46;6.73;;;3.30;;
53781;SDS011;39692;53.114;7.060;2023-02-28T02:01:12;4.97;;;2.17;;
53781;SDS011;39692;53.114;7.060;2023-02-28T02:03:47;4.57;;;2.65;;
53781;SDS011;39692;53.114;7.060;2023-02-28T02:06:13;6.07;;;2.45;;
53781;SDS011;39692;53.114;7.060;2023-02-28T02:08:39;6.57;;;3.05;;
53781;SDS011;39692;53.114;7.060;2023-02-28T02:11:05;5.22;;;2.88;;
53781;SDS011;39692;53.114;7.060;2023-02-28T02:24:01;5.75;;;2.92;;
53781;SDS011;39692;53.114;7.060;2023-02-28T02:31:51;5.65;;;3.15;;
53781;SDS011;39692;53.114;7.060;2023-02-28T02:34:29;6.28;;;2.78;;
53781;SDS011;39692;53.114;7.060;2023-02-28T02:39:31;4.60;;;2.88;;
53781;SDS011;39692;53.114;7.060;2023-02-28T02:42:01;5.90;;;3.22;;
53781;SDS011;39692;53.114;7.060;2023-02-28T02:44:29;5.43;;;2.80;;
53781;SDS011;39692;53.114;7.060;2023-02-28T02:46:58;7.70;;;3.75;;
53781;SDS011;39692;53.114;7.060;2023-02-28T02:49:33;5.53;;;3.38;;
53781;SDS011;39692;53.114;7.060;2023-02-28T02:52:01;5.57;;;2.90;;
53781;SDS011;39692;53.114;7.060;2023-02-28T02:54:29;6.18;;;3.15;;
53781;SDS011;39692;53.114;7.060;2023-02-28T02:56:57;10.55;;;3.95;;
53781;SDS011;39692;53.114;7.060;2023-02-28T02:59:23;4.80;;;2.78;;
53781;SDS011;39692;53.114;7.060;2023-02-28T03:01:51;6.80;;;3.28;;
53781;SDS011;39692;53.114;7.060;2023-02-28T03:04:19;5.25;;;2.85;;
53781;SDS011;39692;53.114;7.060;2023-02-28T03:06:46;8.85;;;3.45;;
53781;SDS011;39692;53.114;7.060;2023-02-28T03:09:12;5.88;;;2.72;;
53781;SDS011;39692;53.114;7.060;2023-02-28T03:11:38;6.03;;;3.08;;
53781;SDS011;39692;53.114;7.060;2023-02-28T03:19:03;4.80;;;2.78;;
53781;SDS011;39692;53.114;7.060;2023-02-28T03:21:34;7.57;;;2.90;;
53781;SDS011;39692;53.114;7.060;2023-02-28T03:24:03;5.25;;;3.40;;
53781;SDS011;39692;53.114;7.060;2023-02-28T03:26:31;5.32;;;3.03;;
53781;SDS011;39692;53.114;7.060;2023-02-28T03:29:10;6.47;;;2.92;;
53781;SDS011;39692;53.114;7.060;2023-02-28T03:31:44;6.63;;;3.05;;
53781;SDS011;39692;53.114;7.060;2023-02-28T03:34:34;6.32;;;3.08;;
53781;SDS011;39692;53.114;7.060;2023-02-28T03:37:03;5.30;;;3.03;;
53781;SDS011;39692;53.114;7.060;2023-02-28T03:39:31;5.78;;;2.90;;
53781;SDS011;39692;53.114;7.060;2023-02-28T03:42:11;6.45;;;3.38;;
53781;SDS011;39692;53.114;7.060;2023-02-28T03:44:39;6.55;;;3.20;;
53781;SDS011;39692;53.114;7.060;2023-02-28T03:49:35;5.78;;;3.08;;
53781;SDS011;39692;53.114;7.060;2023-02-28T03:52:03;7.65;;;3.60;;
53781;SDS011;39692;53.114;7.060;2023-02-28T03:54:31;7.25;;;3.65;;
53781;SDS011;39692;53.114;7.060;2023-02-28T03:57:10;5.18;;;3.08;;
53781;SDS011;39692;53.114;7.060;2023-02-28T03:59:57;6.90;;;3.17;;
53781;SDS011;39692;53.114;7.060;2023-02-28T04:02:25;6.20;;;3.67;;
53781;SDS011;39692;53.114;7.060;2023-02-28T04:04:51;8.88;;;3.75;;
53781;SDS011;39692;53.114;7.060;2023-02-28T04:07:18;5.90;;;2.88;;
53781;SDS011;39692;53.114;7.060;2023-02-28T04:09:44;7.30;;;3.50;;
53781;SDS011;39692;53.114;7.060;2023-02-28T04:12:10;5.40;;;2.97;;
53781;SDS011;39692;53.114;7.060;2023-02-28T04:14:36;9.02;;;4.03;;
53781;SDS011;39692;53.114;7.060;2023-02-28T04:17:02;5.22;;;2.92;;
53781;SDS011;39692;53.114;7.060;2023-02-28T04:19:28;6.03;;;2.60;;
53781;SDS011;39692;53.114;7.060;2023-02-28T04:21:54;6.25;;;3.17;;
53781;SDS011;39692;53.114;7.060;2023-02-28T04:24:21;7.93;;;3.47;;
53781;SDS011;39692;53.114;7.060;2023-02-28T04:26:49;7.38;;;3.05;;
53781;SDS011;39692;53.114;7.060;2023-02-28T04:29:36;7.45;;;2.80;;
53781;SDS011;39692;53.114;7.060;2023-02-28T04:32:02;5.65;;;3.63;;
53781;SDS011;39692;53.114;7.060;2023-02-28T04:34:29;7.78;;;3.33;;
53781;SDS011;39692;53.114;7.060;2023-02-28T04:36:55;6.03;;;2.95;;
53781;SDS011;39692;53.114;7.060;2023-02-28T04:39:22;6.10;;;3.50;;
53781;SDS011;39692;53.114;7.060;2023-02-28T04:41:48;6.47;;;3.88;;
53781;SDS011;39692;53.114;7.060;2023-02-28T04:44:15;7.85;;;3.20;;
53781;SDS011;39692;53.114;7.060;2023-02-28T04:46:41;7.45;;;3.10;;
53781;SDS011;39692;53.114;7.060;2023-02-28T04:49:08;8.77;;;3.47;;
53781;SDS011;39692;53.114;7.060;2023-02-28T04:51:34;6.63;;;3.53;;
53781;SDS011;39692;53.114;7.060;2023-02-28T04:54:00;4.38;;;2.60;;
53781;SDS011;39692;53.114;7.060;2023-02-28T04:56:26;5.55;;;3.13;;
53781;SDS011;39692;53.114;7.060;2023-02-28T04:58:52;5.70;;;3.22;;
53781;SDS011;39692;53.114;7.060;2023-02-28T05:01:23;6.88;;;3.97;;
53781;SDS011;39692;53.114;7.060;2023-02-28T05:03:51;6.15;;;2.97;;
53781;SDS011;39692;53.114;7.060;2023-02-28T05:06:17;7.00;;;3.55;;
53781;SDS011;39692;53.114;7.060;2023-02-28T05:08:43;5.60;;;3.13;;
53781;SDS011;39692;53.114;7.060;2023-02-28T05:13:41;7.15;;;3.17;;
53781;SDS011;39692;53.114;7.060;2023-02-28T05:16:07;6.97;;;3.53;;
53781;SDS011;39692;53.114;7.060;2023-02-28T05:18:33;6.72;;;3.47;;
53781;SDS011;39692;53.114;7.060;2023-02-28T05:20:59;9.07;;;4.13;;
53781;SDS011;39692;53.114;7.060;2023-02-28T05:23:28;6.53;;;4.13;;
53781;SDS011;39692;53.114;7.060;2023-02-28T05:25:55;6.53;;;3.88;;
53781;SDS011;39692;53.114;7.060;2023-02-28T05:28:21;6.95;;;3.65;;
53781;SDS011;39692;53.114;7.060;2023-02-28T05:30:47;6.82;;;3.75;;
53781;SDS011;39692;53.114;7.060;2023-02-28T05:33:13;9.15;;;4.28;;
53781;SDS011;39692;53.114;7.060;2023-02-28T05:35:40;8.50;;;4.38;;
53781;SDS011;39692;53.114;7.060;2023-02-28T05:38:06;7.90;;;4.07;;
53781;SDS011;39692;53.114;7.060;2023-02-28T05:40:32;6.97;;;3.08;;
53781;SDS011;39692;53.114;7.060;2023-02-28T05:42:58;8.07;;;3.60;;
53781;SDS011;39692;53.114;7.060;2023-02-28T05:45:24;6.22;;;3.50;;
53781;SDS011;39692;53.114;7.060;2023-02-28T05:47:54;6.13;;;3.42;;
53781;SDS011;39692;53.114;7.060;2023-02-28T05:50:20;7.72;;;3.70;;
53781;SDS011;39692;53.114;7.060;2023-02-28T05:52:50;6.68;;;4.03;;
53781;SDS011;39692;53.114;7.060;2023-02-28T05:55:16;7.80;;;4.15;;
53781;SDS011;39692;53.114;7.060;2023-02-28T05:57:42;9.02;;;4.32;;
53781;SDS011;39692;53.114;7.060;2023-02-28T06:00:08;11.27;;;5.00;;
53781;SDS011;39692;53.114;7.060;2023-02-28T06:02:35;7.90;;;4.60;;
53781;SDS011;39692;53.114;7.060;2023-02-28T06:05:01;12.07;;;5.18;;
53781;SDS011;39692;53.114;7.060;2023-02-28T06:07:27;8.13;;;3.80;;
53781;SDS011;39692;53.114;7.060;2023-02-28T06:09:53;12.43;;;4.90;;
53781;SDS011;39692;53.114;7.060;2023-02-28T06:12:19;8.57;;;4.80;;
53781;SDS011;39692;53.114;7.060;2023-02-28T06:14:45;10.65;;;4.15;;
53781;SDS011;39692;53.114;7.060;2023-02-28T06:17:11;10.38;;;4.32;;
53781;SDS011;39692;53.114;7.060;2023-02-28T06:19:37;7.20;;;4.70;;
53781;SDS011;39692;53.114;7.060;2023-02-28T06:22:04;8.00;;;4.60;;
53781;SDS011;39692;53.114;7.060;2023-02-28T06:24:30;8.73;;;4.22;;
53781;SDS011;39692;53.114;7.060;2023-02-28T06:26:56;10.93;;;5.05;;
53781;SDS011;39692;53.114;7.060;2023-02-28T06:29:29;7.65;;;4.63;;
53781;SDS011;39692;53.114;7.060;2023-02-28T06:31:55;11.00;;;4.47;;
53781;SDS011;39692;53.114;7.060;2023-02-28T06:34:21;10.50;;;4.75;;
53781;SDS011;39692;53.114;7.060;2023-02-28T06:36:49;9.75;;;5.00;;
53781;SDS011;39692;53.114;7.060;2023-02-28T06:39:15;5.35;;;3.88;;
53781;SDS011;39692;53.114;7.060;2023-02-28T06:41:42;9.05;;;4.75;;
53781;SDS011;39692;53.114;7.060;2023-02-28T06:44:14;10.18;;;5.43;;
53781;SDS011;39692;53.114;7.060;2023-02-28T06:46:40;9.20;;;4.25;;
53781;SDS011;39692;53.114;7.060;2023-02-28T06:49:07;10.60;;;4.78;;
53781;SDS011;39692;53.114;7.060;2023-02-28T06:51:36;8.63;;;4.65;;
53781;SDS011;39692;53.114;7.060;2023-02-28T06:54:04;9.43;;;5.43;;
53781;SDS011;39692;53.114;7.060;2023-02-28T06:56:30;9.68;;;5.50;;
53781;SDS011;39692;53.114;7.060;2023-02-28T06:58:56;9.75;;;5.15;;
53781;SDS011;39692;53.114;7.060;2023-02-28T07:01:22;10.63;;;5.88;;
53781;SDS011;39692;53.114;7.060;2023-02-28T07:03:49;11.43;;;5.50;;
53781;SDS011;39692;53.114;7.060;2023-02-28T07:06:20;8.52;;;5.45;;
53781;SDS011;39692;53.114;7.060;2023-02-28T07:08:48;8.77;;;5.28;;
53781;SDS011;39692;53.114;7.060;2023-02-28T07:11:17;12.90;;;6.10;;
53781;SDS011;39692;53.114;7.060;2023-02-28T07:13:43;10.50;;;5.50;;
53781;SDS011;39692;53.114;7.060;2023-02-28T07:16:10;12.52;;;4.95;;
53781;SDS011;39692;53.114;7.060;2023-02-28T07:18:37;9.50;;;5.47;;
53781;SDS011;39692;53.114;7.060;2023-02-28T07:21:04;9.23;;;5.60;;
53781;SDS011;39692;53.114;7.060;2023-02-28T07:23:30;10.32;;;5.22;;
53781;SDS011;39692;53.114;7.060;2023-02-28T07:25:56;8.23;;;5.70;;
53781;SDS011;39692;53.114;7.060;2023-02-28T07:28:22;11.07;;;5.53;;
53781;SDS011;39692;53.114;7.060;2023-02-28T07:30:48;9.50;;;5.22;;
53781;SDS011;39692;53.114;7.060;2023-02-28T07:33:14;8.68;;;4.13;;
53781;SDS011;39692;53.114;7.060;2023-02-28T07:35:40;11.35;;;5.40;;
53781;SDS011;39692;53.114;7.060;2023-02-28T07:38:06;14.48;;;6.13;;
53781;SDS011;39692;53.114;7.060;2023-02-28T07:40:33;9.40;;;5.65;;
53781;SDS011;39692;53.114;7.060;2023-02-28T07:43:00;9.82;;;5.30;;
53781;SDS011;39692;53.114;7.060;2023-02-28T07:45:26;18.48;;;5.63;;
53781;SDS011;39692;53.114;7.060;2023-02-28T07:47:53;9.25;;;5.50;;
53781;SDS011;39692;53.114;7.060;2023-02-28T07:50:20;10.63;;;4.60;;
53781;SDS011;39692;53.114;7.060;2023-02-28T07:52:46;9.45;;;5.70;;
53781;SDS011;39692;53.114;7.060;2023-02-28T07:55:12;10.27;;;5.40;;
53781;SDS011;39692;53.114;7.060;2023-02-28T07:57:38;7.57;;;4.75;;
53781;SDS011;39692;53.114;7.060;2023-02-28T08:00:05;12.60;;;5.70;;
53781;SDS011;39692;53.114;7.060;2023-02-28T08:02:31;13.90;;;6.03;;
53781;SDS011;39692;53.114;7.060;2023-02-28T08:04:57;11.07;;;5.55;;
53781;SDS011;39692;53.114;7.060;2023-02-28T08:07:25;9.52;;;5.03;;
53781;SDS011;39692;53.114;7.060;2023-02-28T08:09:51;10.07;;;5.60;;
53781;SDS011;39692;53.114;7.060;2023-02-28T08:12:17;12.48;;;6.15;;
53781;SDS011;39692;53.114;7.060;2023-02-28T08:14:43;12.32;;;5.97;;
53781;SDS011;39692;53.114;7.060;2023-02-28T08:17:09;11.32;;;5.97;;
53781;SDS011;39692;53.114;7.060;2023-02-28T08:19:36;10.63;;;6.10;;
53781;SDS011;39692;53.114;7.060;2023-02-28T08:22:02;10.70;;;5.78;;
53781;SDS011;39692;53.114;7.060;2023-02-28T08:24:28;13.55;;;7.45;;
53781;SDS011;39692;53.114;7.060;2023-02-28T08:26:55;9.57;;;5.82;;
53781;SDS011;39692;53.114;7.060;2023-02-28T08:29:21;10.52;;;5.68;;
53781;SDS011;39692;53.114;7.060;2023-02-28T08:31:47;10.80;;;7.00;;
53781;SDS011;39692;53.114;7.060;2023-02-28T08:34:14;11.77;;;6.28;;
53781;SDS011;39692;53.114;7.060;2023-02-28T08:36:40;13.18;;;7.30;;
53781;SDS011;39692;53.114;7.060;2023-02-28T08:39:08;12.85;;;7.38;;
53781;SDS011;39692;53.114;7.060;2023-02-28T08:41:34;15.10;;;7.32;;
53781;SDS011;39692;53.114;7.060;2023-02-28T08:44:00;14.07;;;7.80;;
53781;SDS011;39692;53.114;7.060;2023-02-28T08:46:26;12.18;;;7.53;;
53781;SDS011;39692;53.114;7.060;2023-02-28T08:48:53;12.63;;;7.88;;
53781;SDS011;39692;53.114;7.060;2023-02-28T08:51:20;14.55;;;9.85;;
53781;SDS011;39692;53.114;7.060;2023-02-28T08:53:52;12.57;;;9.43;;
53781;SDS011;39692;53.114;7.060;2023-02-28T08:56:19;13.13;;;10.63;;
53781;SDS011;39692;53.114;7.060;2023-02-28T08:58:46;11.38;;;9.30;;
53781;SDS011;39692;53.114;7.060;2023-02-28T09:01:14;12.05;;;10.20;;
53781;SDS011;39692;53.114;7.060;2023-02-28T09:03:41;13.50;;;10.23;;
53781;SDS011;39692;53.114;7.060;2023-02-28T09:06:08;12.10;;;9.75;;
53781;SDS011;39692;53.114;7.060;2023-02-28T09:08:35;11.97;;;9.93;;
53781;SDS011;39692;53.114;7.060;2023-02-28T09:11:01;11.93;;;8.82;;
53781;SDS011;39692;53.114;7.060;2023-02-28T09:13:28;11.18;;;9.52;;
53781;SDS011;39692;53.114;7.060;2023-02-28T09:15:54;10.02;;;8.43;;
53781;SDS011;39692;53.114;7.060;2023-02-28T09:18:20;10.00;;;8.18;;
53781;SDS011;39692;53.114;7.060;2023-02-28T09:20:46;12.20;;;8.02;;
53781;SDS011;39692;53.114;7.060;2023-02-28T09:23:12;10.85;;;8.43;;
53781;SDS011;39692;53.114;7.060;2023-02-28T09:25:44;9.70;;;7.90;;
53781;SDS011;39692;53.114;7.060;2023-02-28T09:28:11;8.68;;;7.78;;
53781;SDS011;39692;53.114;7.060;2023-02-28T09:30:37;12.63;;;8.30;;
53781;SDS011;39692;53.114;7.060;2023-02-28T09:33:03;9.93;;;8.15;;
53781;SDS011;39692;53.114;7.060;2023-02-28T09:35:29;8.75;;;7.85;;
53781;SDS011;39692;53.114;7.060;2023-02-28T09:37:56;9.82;;;8.15;;
53781;SDS011;39692;53.114;7.060;2023-02-28T09:40:23;9.65;;;8.00;;
53781;SDS011;39692;53.114;7.060;2023-02-28T09:42:51;10.57;;;8.25;;
53781;SDS011;39692;53.114;7.060;2023-02-28T09:45:22;10.43;;;8.85;;
53781;SDS011;39692;53.114;7.060;2023-02-28T09:47:48;9.93;;;8.90;;
53781;SDS011;39692;53.114;7.060;2023-02-28T09:50:22;11.00;;;8.52;;
53781;SDS011;39692;53.114;7.060;2023-02-28T09:52:54;11.20;;;8.95;;
53781;SDS011;39692;53.114;7.060;2023-02-28T09:57:56;11.32;;;8.50;;
53781;SDS011;39692;53.114;7.060;2023-02-28T10:10:38;11.20;;;7.53;;
53781;SDS011;39692;53.114;7.060;2023-02-28T10:15:31;10.60;;;6.93;;
53781;SDS011;39692;53.114;7.060;2023-02-28T10:18:00;9.27;;;6.07;;
53781;SDS011;39692;53.114;7.060;2023-02-28T10:20:28;11.45;;;7.28;;
53781;SDS011;39692;53.114;7.060;2023-02-28T10:25:40;7.25;;;6.00;;
53781;SDS011;39692;53.114;7.060;2023-02-28T10:28:12;8.65;;;6.90;;
53781;SDS011;39692;53.114;7.060;2023-02-28T10:30:48;9.13;;;7.03;;
53781;SDS011;39692;53.114;7.060;2023-02-28T10:33:22;9.70;;;6.28;;
53781;SDS011;39692;53.114;7.060;2023-02-28T10:35:48;9.48;;;6.13;;
53781;SDS011;39692;53.114;7.060;2023-02-28T10:38:25;8.80;;;5.60;;
53781;SDS011;39692;53.114;7.060;2023-02-28T10:41:02;8.13;;;5.70;;
53781;SDS011;39692;53.114;7.060;2023-02-28T10:43:28;10.48;;;5.60;;
53781;SDS011;39692;53.114;7.060;2023-02-28T10:51:04;7.75;;;5.88;;
53781;SDS011;39692;53.114;7.060;2023-02-28T10:53:34;11.70;;;7.05;;
53781;SDS011;39692;53.114;7.060;2023-02-28T10:56:03;8.20;;;7.07;;
53781;SDS011;39692;53.114;7.060;2023-02-28T10:58:31;8.65;;;7.15;;
53781;SDS011;39692;53.114;7.060;2023-02-28T11:00:58;8.88;;;7.30;;
53781;SDS011;39692;53.114;7.060;2023-02-28T11:05:50;9.35;;;8.35;;
53781;SDS011;39692;53.114;7.060;2023-02-28T11:08:17;9.60;;;6.85;;
53781;SDS011;39692;53.114;7.060;2023-02-28T11:11:03;7.28;;;5.13;;
53781;SDS011;39692;53.114;7.060;2023-02-28T11:13:32;6.68;;;4.47;;
53781;SDS011;39692;53.114;7.060;2023-02-28T11:15:59;5.55;;;4.20;;
53781;SDS011;39692;53.114;7.060;2023-02-28T11:18:30;6.82;;;4.40;;
53781;SDS011;39692;53.114;7.060;2023-02-28T11:20:57;5.85;;;3.60;;
53781;SDS011;39692;53.114;7.060;2023-02-28T11:23:28;9.13;;;4.82;;
53781;SDS011;39692;53.114;7.060;2023-02-28T11:25:57;8.13;;;4.53;;
53781;SDS011;39692;53.114;7.060;2023-02-28T11:36:33;7.75;;;6.90;;
53781;SDS011;39692;53.114;7.060;2023-02-28T11:38:59;6.47;;;5.27;;
53781;SDS011;39692;53.114;7.060;2023-02-28T11:52:43;7.03;;;5.75;;
53781;SDS011;39692;53.114;7.060;2023-02-28T11:55:27;6.63;;;5.85;;
53781;SDS011;39692;53.114;7.060;2023-02-28T12:03:04;7.35;;;6.00;;
53781;SDS011;39692;53.114;7.060;2023-02-28T12:05:39;6.72;;;5.13;;
53781;SDS011;39692;53.114;7.060;2023-02-28T12:10:47;5.78;;;5.13;;
53781;SDS011;39692;53.114;7.060;2023-02-28T12:13:25;6.65;;;4.63;;
53781;SDS011;39692;53.114;7.060;2023-02-28T12:21:27;7.10;;;5.40;;
53781;SDS011;39692;53.114;7.060;2023-02-28T12:24:07;5.80;;;5.05;;
53781;SDS011;39692;53.114;7.060;2023-02-28T12:26:39;6.95;;;5.00;;
53781;SDS011;39692;53.114;7.060;2023-02-28T12:29:17;6.72;;;4.95;;
53781;SDS011;39692;53.114;7.060;2023-02-28T12:32:30;5.90;;;5.30;;
53781;SDS011;39692;53.114;7.060;2023-02-28T12:34:33;5.97;;;4.95;;
53781;SDS011;39692;53.114;7.060;2023-02-28T12:37:02;6.55;;;5.82;;
53781;SDS011;39692;53.114;7.060;2023-02-28T12:39:30;7.18;;;5.68;;
53781;SDS011;39692;53.114;7.060;2023-02-28T12:41:59;7.03;;;5.43;;
53781;SDS011;39692;53.114;7.060;2023-02-28T12:44:32;6.32;;;4.95;;
53781;SDS011;39692;53.114;7.060;2023-02-28T12:47:00;7.55;;;5.40;;
53781;SDS011;39692;53.114;7.060;2023-02-28T12:49:31;7.95;;;5.85;;
53781;SDS011;39692;53.114;7.060;2023-02-28T12:51:59;5.85;;;5.25;;
53781;SDS011;39692;53.114;7.060;2023-02-28T12:54:28;6.35;;;5.00;;
53781;SDS011;39692;53.114;7.060;2023-02-28T12:57:02;6.68;;;4.72;;
53781;SDS011;39692;53.114;7.060;2023-02-28T12:59:43;6.07;;;4.90;;
53781;SDS011;39692;53.114;7.060;2023-02-28T13:10:11;6.03;;;5.13;;
53781;SDS011;39692;53.114;7.060;2023-02-28T13:12:47;5.93;;;5.03;;
53781;SDS011;39692;53.114;7.060;2023-02-28T13:17:48;5.80;;;4.97;;
53781;SDS011;39692;53.114;7.060;2023-02-28T13:20:15;6.82;;;4.90;;
53781;SDS011;39692;53.114;7.060;2023-02-28T13:22:45;5.30;;;4.80;;
53781;SDS011;39692;53.114;7.060;2023-02-28T13:27:47;5.97;;;5.10;;
53781;SDS011;39692;53.114;7.060;2023-02-28T13:35:50;5.90;;;5.10;;
53781;SDS011;39692;53.114;7.060;2023-02-28T13:38:34;6.28;;;5.68;;
53781;SDS011;39692;53.114;7.060;2023-02-28T13:43:35;6.88;;;5.80;;
53781;SDS011;39692;53.114;7.060;2023-02-28T13:46:12;6.97;;;5.75;;
53781;SDS011;39692;53.114;7.060;2023-02-28T13:48:38;6.93;;;5.60;;
53781;SDS011;39692;53.114;7.060;2023-02-28T13:51:27;6.40;;;5.25;;
53781;SDS011;39692;53.114;7.060;2023-02-28T13:56:45;5.90;;;4.60;;
53781;SDS011;39692;53.114;7.060;2023-02-28T14:04:46;5.90;;;4.22;;
53781;SDS011;39692;53.114;7.060;2023-02-28T14:07:21;7.40;;;5.25;;
53781;SDS011;39692;53.114;7.060;2023-02-28T14:09:51;8.32;;;5.68;;
53781;SDS011;39692;53.114;7.060;2023-02-28T14:17:53;6.20;;;4.23;;
53781;SDS011;39692;53.114;7.060;2023-02-28T14:20:20;5.55;;;4.05;;
53781;SDS011;39692;53.114;7.060;2023-02-28T14:25:18;6.25;;;3.75;;
53781;SDS011;39692;53.114;7.060;2023-02-28T14:32:54;5.45;;;3.30;;
53781;SDS011;39692;53.114;7.060;2023-02-28T14:35:43;6.05;;;3.88;;
53781;SDS011;39692;53.114;7.060;2023-02-28T14:38:23;5.88;;;3.60;;
53781;SDS011;39692;53.114;7.060;2023-02-28T14:40:51;6.75;;;3.50;;
53781;SDS011;39692;53.114;7.060;2023-02-28T14:43:22;6.65;;;3.60;;
53781;SDS011;39692;53.114;7.060;2023-02-28T14:45:53;5.82;;;3.50;;
53781;SDS011;39692;53.114;7.060;2023-02-28T14:48:20;5.00;;;3.15;;
53781;SDS011;39692;53.114;7.060;2023-02-28T14:50:51;6.40;;;3.22;;
53781;SDS011;39692;53.114;7.060;2023-02-28T14:53:18;7.95;;;3.45;;
53781;SDS011;39692;53.114;7.060;2023-02-28T14:55:46;5.18;;;3.28;;
53781;SDS011;39692;53.114;7.060;2023-02-28T14:58:21;9.50;;;3.67;;
53781;SDS011;39692;53.114;7.060;2023-02-28T15:00:48;5.03;;;4.07;;
53781;SDS011;39692;53.114;7.060;2023-02-28T15:03:19;5.50;;;3.42;;
53781;SDS011;39692;53.114;7.060;2023-02-28T15:05:55;5.25;;;3.45;;
53781;SDS011;39692;53.114;7.060;2023-02-28T15:08:22;3.90;;;2.83;;
53781;SDS011;39692;53.114;7.060;2023-02-28T15:10:53;5.35;;;2.92;;
53781;SDS011;39692;53.114;7.060;2023-02-28T15:13:20;4.28;;;3.03;;
53781;SDS011;39692;53.114;7.060;2023-02-28T15:15:51;4.90;;;3.38;;
53781;SDS011;39692;53.114;7.060;2023-02-28T15:18:24;5.18;;;3.92;;
53781;SDS011;39692;53.114;7.060;2023-02-28T15:20:52;8.93;;;4.95;;
53781;SDS011;39692;53.114;7.060;2023-02-28T15:23:19;9.57;;;5.53;;
53781;SDS011;39692;53.114;7.060;2023-02-28T15:25:46;7.60;;;5.15;;
53781;SDS011;39692;53.114;7.060;2023-02-28T15:28:13;6.05;;;4.55;;
53781;SDS011;39692;53.114;7.060;2023-02-28T15:30:49;7.50;;;4.07;;
53781;SDS011;39692;53.114;7.060;2023-02-28T15:33:20;8.00;;;4.22;;
53781;SDS011;39692;53.114;7.060;2023-02-28T15:35:47;8.93;;;3.67;;
53781;SDS011;39692;53.114;7.060;2023-02-28T15:40:52;6.18;;;3.90;;
53781;SDS011;39692;53.114;7.060;2023-02-28T15:43:32;5.97;;;3.28;;
53781;SDS011;39692;53.114;7.060;2023-02-28T15:45:59;6.00;;;4.15;;
53781;SDS011;39692;53.114;7.060;2023-02-28T15:48:27;7.65;;;4.72;;
53781;SDS011;39692;53.114;7.060;2023-02-28T15:53:33;6.55;;;3.85;;
53781;SDS011;39692;53.114;7.060;2023-02-28T15:56:02;6.78;;;3.70;;
53781;SDS011;39692;53.114;7.060;2023-02-28T15:58:28;7.88;;;4.47;;
53781;SDS011;39692;53.114;7.060;2023-02-28T16:01:05;6.63;;;3.83;;
53781;SDS011;39692;53.114;7.060;2023-02-28T16:03:37;7.15;;;4.78;;
53781;SDS011;39692;53.114;7.060;2023-02-28T16:08:42;6.75;;;4.60;;
53781;SDS011;39692;53.114;7.060;2023-02-28T16:11:09;6.85;;;4.82;;
53781;SDS011;39692;53.114;7.060;2023-02-28T16:13:36;6.75;;;4.75;;
53781;SDS011;39692;53.114;7.060;2023-02-28T16:16:02;8.05;;;4.60;;
53781;SDS011;39692;53.114;7.060;2023-02-28T16:18:28;6.95;;;4.80;;
53781;SDS011;39692;53.114;7.060;2023-02-28T16:20:54;6.07;;;3.85;;
53781;SDS011;39692;53.114;7.060;2023-02-28T16:23:21;6.10;;;4.72;;
53781;SDS011;39692;53.114;7.060;2023-02-28T16:25:47;7.72;;;5.32;;
53781;SDS011;39692;53.114;7.060;2023-02-28T16:30:42;7.93;;;4.57;;
53781;SDS011;39692;53.114;7.060;2023-02-28T16:33:08;6.97;;;5.00;;
53781;SDS011;39692;53.114;7.060;2023-02-28T16:35:35;7.93;;;5.30;;
53781;SDS011;39692;53.114;7.060;2023-02-28T16:38:01;11.10;;;5.90;;
53781;SDS011;39692;53.114;7.060;2023-02-28T16:40:27;10.77;;;5.57;;
53781;SDS011;39692;53.114;7.060;2023-02-28T16:42:55;10.73;;;6.55;;
53781;SDS011;39692;53.114;7.060;2023-02-28T16:45:24;9.07;;;6.43;;
53781;SDS011;39692;53.114;7.060;2023-02-28T16:47:51;8.45;;;5.95;;
53781;SDS011;39692;53.114;7.060;2023-02-28T16:50:18;8.32;;;5.35;;
53781;SDS011;39692;53.114;7.060;2023-02-28T16:52:44;8.77;;;4.70;;
53781;SDS011;39692;53.114;7.060;2023-02-28T16:55:10;9.75;;;6.15;;
53781;SDS011;39692;53.114;7.060;2023-02-28T16:57:37;9.48;;;6.05;;
53781;SDS011;39692;53.114;7.060;2023-02-28T17:00:04;7.00;;;5.15;;
53781;SDS011;39692;53.114;7.060;2023-02-28T17:02:32;9.68;;;5.43;;
53781;SDS011;39692;53.114;7.060;2023-02-28T17:04:59;8.82;;;5.35;;
53781;SDS011;39692;53.114;7.060;2023-02-28T17:07:25;8.27;;;5.35;;
53781;SDS011;39692;53.114;7.060;2023-02-28T17:09:51;14.50;;;5.45;;
53781;SDS011;39692;53.114;7.060;2023-02-28T17:12:17;9.73;;;6.32;;
53781;SDS011;39692;53.114;7.060;2023-02-28T17:14:43;9.88;;;4.88;;